Ohio State University (OSU)

 

Airport Diagram
Current Weather/Forecast (MVFR Conditions)
METAR KOSU 071153Z 32008KT 10SM OVC013 08/06 A2996 RMK AO2 SLP146 60028 70050 T00780056 10100 20072 53016
TAF

Airport Information

All Charts
General
Chart Name View
AIRPORT DIAGRAM
TAKEOFF MINIMUMS
ALTERNATE MINIMUMS
HOT SPOT

Arrivals
Chart Name Download
BREMN FIVE
BREMN FIVE, CONT.1
GAILL THREE (RNAV)
GUNNE FOUR
GUNNE FOUR, CONT.1

Approaches
Chart Name Download
ILS OR LOC RWY 09R
RNAV (GPS) RWY 09R
RNAV (GPS) RWY 27L
NDB RWY 09R


Airport Statistics
Departures Arrivals Local
All Collected Stats since June 2016: 140 75 11
2021 Stats: 36 24 0
May Stats: 0 1 0

Inbound Traffic (Arrivals) - 0

No inbound traffic.


Outbound Traffic (Departures) - 0

No outbound traffic.


Local Traffic (Pattern) - 0

No local traffic.